Time;durP1;ratioP1;P1;durP2;ratioP2;P2;SDS_P1;SDS_P2;PMS_P1;PMS_P2;Temp;Humidity;BMP_temperature;BMP_pressure;BME280_temperature;BME280_humidity;BME280_pressure;Samples;Min_cycle;Max_cycle;Signal;HPM_P1;HPM_P2
2023/12/26 00:02:17;;;;;;;23.42;14.02;;;;;;;;;;5005824;28;20026;-69
2023/12/26 00:04:43;;;;;;;21.27;12.95;;;;;;;;;;4992204;28;20025;-69
2023/12/26 00:07:09;;;;;;;16.63;13.07;;;;;;;;;;5011721;28;20109;-68
2023/12/26 00:09:38;;;;;;;24.17;13.93;;;;;;;;;;5011420;28;20046;-69
2023/12/26 00:12:05;;;;;;;25.98;15.18;;;;;;;;;;5010983;28;20025;-69
2023/12/26 00:14:31;;;;;;;20.23;13.95;;;;;;;;;;5010668;28;20469;-69
2023/12/26 00:16:57;;;;;;;19.10;13.85;;;;;;;;;;5010769;28;20068;-68
2023/12/26 00:19:23;;;;;;;21.50;13.60;;;;;;;;;;5011269;28;20042;-69
2023/12/26 00:21:49;;;;;;;25.77;14.60;;;;;;;;;;5024912;28;20043;-68
2023/12/26 00:24:15;;;;;;;21.85;14.57;;;;;;;;;;5011007;28;20092;-69
2023/12/26 00:26:41;;;;;;;26.38;14.52;;;;;;;;;;5011444;28;20423;-69
2023/12/26 00:29:07;;;;;;;21.60;14.07;;;;;;;;;;5010596;28;20038;-68
2023/12/26 00:31:34;;;;;;;27.58;15.38;;;;;;;;;;5022242;28;20067;-69
2023/12/26 00:34:00;;;;;;;23.38;14.90;;;;;;;;;;5013373;28;20446;-69
2023/12/26 00:36:26;;;;;;;22.13;14.70;;;;;;;;;;5011055;28;20372;-69
2023/12/26 00:38:52;;;;;;;21.90;14.15;;;;;;;;;;5005782;28;20034;-69
2023/12/26 00:41:18;;;;;;;18.98;13.48;;;;;;;;;;5011326;28;20119;-69
2023/12/26 00:43:44;;;;;;;22.65;14.02;;;;;;;;;;5010476;28;20102;-68
2023/12/26 00:46:10;;;;;;;25.95;14.60;;;;;;;;;;5010383;28;20034;-69
2023/12/26 00:48:36;;;;;;;22.52;14.07;;;;;;;;;;5010958;28;20484;-69
2023/12/26 00:51:03;;;;;;;24.10;14.57;;;;;;;;;;5010511;28;20171;-69
2023/12/26 00:53:29;;;;;;;27.67;14.93;;;;;;;;;;5020473;28;20533;-69
2023/12/26 00:55:56;;;;;;;26.02;14.80;;;;;;;;;;5014460;28;20056;-70
2023/12/26 00:58:22;;;;;;;22.20;14.23;;;;;;;;;;5010751;28;20025;-69
2023/12/26 01:00:48;;;;;;;24.08;15.00;;;;;;;;;;5010507;28;20042;-69
2023/12/26 01:03:15;;;;;;;22.70;14.65;;;;;;;;;;5009255;28;20060;-69
2023/12/26 01:05:41;;;;;;;24.30;14.57;;;;;;;;;;5011592;28;20034;-69
2023/12/26 01:08:11;;;;;;;21.63;14.30;;;;;;;;;;5014458;28;20037;-69
2023/12/26 01:10:37;;;;;;;18.67;14.10;;;;;;;;;;5014273;28;20037;-69
2023/12/26 01:13:03;;;;;;;21.50;14.90;;;;;;;;;;5026908;28;20064;-69
2023/12/26 01:15:29;;;;;;;20.63;14.68;;;;;;;;;;5032077;28;20049;-69
2023/12/26 01:17:55;;;;;;;21.15;14.48;;;;;;;;;;5033938;28;20187;-69
2023/12/26 01:20:21;;;;;;;22.98;14.65;;;;;;;;;;5016966;28;20018;-68
2023/12/26 01:22:47;;;;;;;23.65;14.40;;;;;;;;;;5014085;28;20051;-69
2023/12/26 01:25:14;;;;;;;24.10;16.23;;;;;;;;;;5022188;28;20109;-70
2023/12/26 01:27:40;;;;;;;25.98;14.95;;;;;;;;;;5014768;28;20044;-69
2023/12/26 01:30:06;;;;;;;19.65;15.45;;;;;;;;;;5014848;28;20034;-69
2023/12/26 01:32:32;;;;;;;22.55;15.75;;;;;;;;;;5014468;28;20048;-69
2023/12/26 01:34:58;;;;;;;21.92;15.65;;;;;;;;;;5014161;28;20492;-69
2023/12/26 01:37:24;;;;;;;24.80;17.00;;;;;;;;;;5014465;28;20026;-69
2023/12/26 01:39:50;;;;;;;23.88;17.25;;;;;;;;;;5012981;28;20038;-69
2023/12/26 01:42:17;;;;;;;24.20;16.92;;;;;;;;;;5014203;28;20033;-69
2023/12/26 01:44:43;;;;;;;23.27;16.08;;;;;;;;;;5014065;28;20018;-69
2023/12/26 01:47:10;;;;;;;23.35;16.77;;;;;;;;;;5012931;28;20041;-69
2023/12/26 01:49:36;;;;;;;20.20;16.88;;;;;;;;;;5014156;28;20029;-69
2023/12/26 01:52:04;;;;;;;24.30;17.67;;;;;;;;;;5014437;28;20026;-69
2023/12/26 01:54:32;;;;;;;23.50;17.67;;;;;;;;;;5013356;28;20057;-69
2023/12/26 01:56:59;;;;;;;24.90;17.17;;;;;;;;;;5013924;28;20037;-69
2023/12/26 01:59:25;;;;;;;25.25;17.10;;;;;;;;;;5013994;28;20030;-69
2023/12/26 02:01:51;;;;;;;26.02;18.95;;;;;;;;;;5010055;28;20033;-69
2023/12/26 02:04:17;;;;;;;28.20;18.55;;;;;;;;;;5002040;28;20064;-69
2023/12/26 02:06:43;;;;;;;26.33;18.95;;;;;;;;;;4998479;28;20121;-69
2023/12/26 02:09:10;;;;;;;27.40;19.13;;;;;;;;;;5013968;28;20041;-69
2023/12/26 02:11:38;;;;;;;27.55;18.13;;;;;;;;;;5013555;28;20092;-69
2023/12/26 02:14:04;;;;;;;24.88;17.30;;;;;;;;;;5013690;28;20472;-69
2023/12/26 02:16:31;;;;;;;27.63;17.98;;;;;;;;;;5012719;28;20061;-69
2023/12/26 02:18:57;;;;;;;28.83;19.38;;;;;;;;;;5012960;28;20026;-69
2023/12/26 02:21:23;;;;;;;25.90;18.45;;;;;;;;;;5013095;28;20140;-69
2023/12/26 02:23:55;;;;;;;25.27;18.83;;;;;;;;;;5012514;28;20052;-69
2023/12/26 02:26:25;;;;;;;26.92;19.02;;;;;;;;;;5012399;28;20018;-69
2023/12/26 02:28:51;;;;;;;31.35;19.58;;;;;;;;;;5010209;28;20034;-69
2023/12/26 02:31:18;;;;;;;23.63;19.02;;;;;;;;;;5009245;28;20022;-69
2023/12/26 02:33:46;;;;;;;26.08;18.45;;;;;;;;;;5010366;28;20116;-69
2023/12/26 02:36:12;;;;;;;22.92;20.52;;;;;;;;;;5008788;28;20052;-69
2023/12/26 02:38:38;;;;;;;25.73;19.95;;;;;;;;;;5013859;28;20337;-68
2023/12/26 02:41:04;;;;;;;28.58;20.30;;;;;;;;;;5011040;28;20018;-69
2023/12/26 02:43:32;;;;;;;32.92;20.17;;;;;;;;;;5010593;28;20027;-69
2023/12/26 02:45:58;;;;;;;26.70;20.85;;;;;;;;;;5005286;28;20021;-69
2023/12/26 02:48:25;;;;;;;31.88;20.45;;;;;;;;;;5011501;28;20105;-69
2023/12/26 02:50:52;;;;;;;32.08;20.88;;;;;;;;;;5012991;28;20033;-69
2023/12/26 02:53:18;;;;;;;25.65;19.70;;;;;;;;;;5026850;28;20045;-69
2023/12/26 02:55:44;;;;;;;29.40;20.90;;;;;;;;;;5012683;28;20480;-69
2023/12/26 02:58:10;;;;;;;25.27;20.02;;;;;;;;;;5011595;28;20022;-69
2023/12/26 03:00:36;;;;;;;27.33;21.42;;;;;;;;;;5012794;28;20434;-69
2023/12/26 03:03:02;;;;;;;30.08;20.17;;;;;;;;;;5012753;28;20089;-69
2023/12/26 03:05:28;;;;;;;27.88;20.52;;;;;;;;;;5026039;28;20126;-69
2023/12/26 03:07:54;;;;;;;30.45;20.88;;;;;;;;;;5012978;28;20072;-69
2023/12/26 03:10:20;;;;;;;27.15;20.27;;;;;;;;;;5011538;28;20329;-69
2023/12/26 03:12:46;;;;;;;26.30;20.48;;;;;;;;;;5011604;28;20389;-69
2023/12/26 03:15:12;;;;;;;28.48;20.75;;;;;;;;;;5012038;28;20034;-69
2023/12/26 03:17:38;;;;;;;27.88;19.60;;;;;;;;;;5012326;28;20032;-69
2023/12/26 03:20:05;;;;;;;28.10;21.38;;;;;;;;;;5012365;28;20105;-70
2023/12/26 03:22:31;;;;;;;31.13;20.40;;;;;;;;;;5025912;28;20025;-69
2023/12/26 03:24:57;;;;;;;33.08;21.52;;;;;;;;;;5011999;28;20021;-69
2023/12/26 03:27:23;;;;;;;33.08;22.00;;;;;;;;;;5012334;28;20036;-69
2023/12/26 03:29:49;;;;;;;28.52;21.08;;;;;;;;;;5011837;28;20010;-69
2023/12/26 03:32:17;;;;;;;26.65;20.15;;;;;;;;;;5012180;28;20102;-69
2023/12/26 03:34:43;;;;;;;29.75;19.52;;;;;;;;;;5011882;28;20046;-69
2023/12/26 03:37:10;;;;;;;28.33;19.30;;;;;;;;;;5012317;28;20053;-69
2023/12/26 03:39:37;;;;;;;29.08;20.35;;;;;;;;;;5012239;28;20026;-69
2023/12/26 03:42:03;;;;;;;27.92;20.00;;;;;;;;;;5000866;28;20030;-69
2023/12/26 03:44:29;;;;;;;26.63;20.63;;;;;;;;;;5012265;28;20028;-69
2023/12/26 03:46:55;;;;;;;28.08;21.88;;;;;;;;;;5011978;28;20076;-69
2023/12/26 03:49:21;;;;;;;28.63;20.48;;;;;;;;;;5011989;28;20022;-69
2023/12/26 03:51:47;;;;;;;30.75;21.08;;;;;;;;;;5011689;28;20080;-69
2023/12/26 03:54:14;;;;;;;25.55;21.20;;;;;;;;;;5011252;28;20164;-69
2023/12/26 03:56:40;;;;;;;27.30;20.35;;;;;;;;;;5011921;28;20507;-69
2023/12/26 03:59:07;;;;;;;30.48;20.98;;;;;;;;;;5004640;28;20034;-69
2023/12/26 04:01:34;;;;;;;29.27;21.88;;;;;;;;;;5009290;28;20491;-69
2023/12/26 04:04:01;;;;;;;29.80;20.65;;;;;;;;;;5011758;28;20030;-69
2023/12/26 04:06:27;;;;;;;30.08;22.75;;;;;;;;;;5005862;28;20169;-69
2023/12/26 04:08:53;;;;;;;30.92;23.20;;;;;;;;;;5011690;28;20057;-69
2023/12/26 04:11:19;;;;;;;30.02;22.75;;;;;;;;;;5011612;28;20029;-69
2023/12/26 04:13:44;;;;;;;32.15;22.83;;;;;;;;;;5011826;28;20029;-69
2023/12/26 04:16:11;;;;;;;31.90;23.30;;;;;;;;;;5006559;28;20045;-69
2023/12/26 04:18:37;;;;;;;29.15;22.48;;;;;;;;;;5011324;28;20026;-69
2023/12/26 04:21:03;;;;;;;31.52;23.52;;;;;;;;;;5010459;28;20041;-69
2023/12/26 04:23:29;;;;;;;29.83;22.83;;;;;;;;;;5010713;28;20460;-69
2023/12/26 04:25:55;;;;;;;33.85;24.75;;;;;;;;;;5011425;28;20167;-69
2023/12/26 04:28:21;;;;;;;31.48;22.80;;;;;;;;;;5011629;28;20049;-69
2023/12/26 04:30:48;;;;;;;36.58;24.83;;;;;;;;;;4993876;28;20057;-69
2023/12/26 04:33:14;;;;;;;31.80;25.13;;;;;;;;;;5010360;28;20105;-69
2023/12/26 04:35:41;;;;;;;33.58;23.00;;;;;;;;;;5010554;28;20152;-69
2023/12/26 04:38:07;;;;;;;31.02;23.65;;;;;;;;;;5010730;28;20030;-69
2023/12/26 04:40:33;;;;;;;27.42;23.90;;;;;;;;;;5010746;28;20029;-69
2023/12/26 04:43:08;;;;;;;29.75;23.77;;;;;;;;;;5014866;28;20038;-69
2023/12/26 04:45:38;;;;;;;31.15;24.60;;;;;;;;;;5011581;28;20030;-69
2023/12/26 04:48:08;;;;;;;31.23;23.67;;;;;;;;;;5013108;28;20026;-69
2023/12/26 04:50:35;;;;;;;30.05;24.05;;;;;;;;;;5014662;28;20033;-69
2023/12/26 04:53:04;;;;;;;33.53;24.33;;;;;;;;;;5013889;28;20034;-69
2023/12/26 04:55:30;;;;;;;32.63;22.58;;;;;;;;;;5010826;28;20068;-69
2023/12/26 04:57:56;;;;;;;27.08;24.13;;;;;;;;;;5013991;28;20032;-69
2023/12/26 05:00:22;;;;;;;34.15;23.67;;;;;;;;;;5013914;28;20417;-69
2023/12/26 05:02:48;;;;;;;34.58;24.85;;;;;;;;;;5014400;28;20029;-70
2023/12/26 05:05:14;;;;;;;26.00;23.20;;;;;;;;;;5012326;28;20030;-69
2023/12/26 05:07:40;;;;;;;29.45;24.20;;;;;;;;;;5011079;28;20357;-69
2023/12/26 05:10:07;;;;;;;30.67;25.00;;;;;;;;;;5012847;28;20036;-69
2023/12/26 05:12:33;;;;;;;30.35;23.50;;;;;;;;;;5012617;28;20029;-69
2023/12/26 05:14:59;;;;;;;28.88;23.15;;;;;;;;;;5008442;28;20034;-69
2023/12/26 05:17:25;;;;;;;34.72;25.05;;;;;;;;;;5013078;28;20048;-69
2023/12/26 05:19:50;;;;;;;34.03;25.15;;;;;;;;;;5014569;28;20029;-70
2023/12/26 05:22:16;;;;;;;32.58;24.45;;;;;;;;;;5012278;28;20403;-69
2023/12/26 05:24:42;;;;;;;32.30;24.95;;;;;;;;;;5011225;28;20030;-69
2023/12/26 05:27:08;;;;;;;35.78;26.75;;;;;;;;;;5013613;28;20054;-69
2023/12/26 05:29:34;;;;;;;32.35;25.92;;;;;;;;;;5010513;28;20464;-69
2023/12/26 05:32:00;;;;;;;28.85;24.98;;;;;;;;;;5012109;28;20080;-69
2023/12/26 05:34:26;;;;;;;35.05;26.63;;;;;;;;;;5013112;28;20511;-70
2023/12/26 05:36:52;;;;;;;35.70;26.13;;;;;;;;;;5012925;28;20039;-69
2023/12/26 05:39:19;;;;;;;39.10;26.17;;;;;;;;;;5014438;28;20105;-69
2023/12/26 05:41:45;;;;;;;33.47;25.90;;;;;;;;;;5008652;28;20054;-69
2023/12/26 05:44:11;;;;;;;35.72;26.05;;;;;;;;;;5014329;28;20041;-70
2023/12/26 05:46:37;;;;;;;37.28;27.38;;;;;;;;;;5014664;28;20030;-70
2023/12/26 05:49:03;;;;;;;31.15;25.63;;;;;;;;;;5014480;28;20049;-70
2023/12/26 05:51:29;;;;;;;34.65;26.20;;;;;;;;;;5013423;28;20111;-70
2023/12/26 05:53:56;;;;;;;37.67;26.45;;;;;;;;;;5014328;28;20511;-70
2023/12/26 05:56:22;;;;;;;34.83;26.33;;;;;;;;;;5014120;28;20448;-70
2023/12/26 05:58:48;;;;;;;32.60;26.85;;;;;;;;;;5008663;28;20021;-70
2023/12/26 06:01:33;;;;;;;39.78;26.20;;;;;;;;;;5014228;28;20114;-70
2023/12/26 06:03:59;;;;;;;32.10;27.17;;;;;;;;;;5001919;28;20038;-70
2023/12/26 06:06:25;;;;;;;31.75;26.08;;;;;;;;;;5014319;28;20041;-69
2023/12/26 06:08:51;;;;;;;29.75;25.42;;;;;;;;;;5014084;28;20160;-70
2023/12/26 06:11:17;;;;;;;35.83;26.80;;;;;;;;;;5013859;28;20109;-69
2023/12/26 06:13:43;;;;;;;35.05;27.52;;;;;;;;;;5013980;28;20447;-70
2023/12/26 06:16:09;;;;;;;33.80;26.98;;;;;;;;;;5004195;28;20038;-69
2023/12/26 06:18:35;;;;;;;35.63;26.45;;;;;;;;;;5013794;28;20105;-70
2023/12/26 06:21:02;;;;;;;33.13;26.48;;;;;;;;;;5013951;28;20022;-69
2023/12/26 06:23:28;;;;;;;31.50;26.52;;;;;;;;;;5013688;28;20053;-69
2023/12/26 06:25:55;;;;;;;40.10;26.85;;;;;;;;;;5013839;28;20051;-69
2023/12/26 06:28:21;;;;;;;32.40;25.40;;;;;;;;;;5013933;28;20054;-70
2023/12/26 06:30:47;;;;;;;37.28;25.73;;;;;;;;;;5013386;28;20114;-70
2023/12/26 06:33:13;;;;;;;35.03;26.63;;;;;;;;;;5003928;28;20049;-69
2023/12/26 06:35:39;;;;;;;31.42;26.05;;;;;;;;;;5011562;28;20041;-70
2023/12/26 06:38:12;;;;;;;32.38;26.13;;;;;;;;;;5013257;28;20427;-69
2023/12/26 06:40:39;;;;;;;34.78;24.17;;;;;;;;;;5013386;28;20026;-70
2023/12/26 06:43:05;;;;;;;29.92;24.40;;;;;;;;;;5011835;28;20408;-70
2023/12/26 06:45:31;;;;;;;33.63;24.67;;;;;;;;;;5013361;28;20041;-70
2023/12/26 06:47:57;;;;;;;30.42;23.60;;;;;;;;;;5013098;28;20026;-70
2023/12/26 06:50:23;;;;;;;29.70;22.88;;;;;;;;;;5003678;28;20080;-70
2023/12/26 06:52:49;;;;;;;29.25;23.05;;;;;;;;;;5012925;28;20080;-71
2023/12/26 06:55:15;;;;;;;35.05;23.80;;;;;;;;;;5012877;28;20029;-70
2023/12/26 06:57:41;;;;;;;31.20;22.10;;;;;;;;;;5013167;28;20036;-70
2023/12/26 07:00:07;;;;;;;34.17;22.58;;;;;;;;;;5012985;28;20072;-70
2023/12/26 07:02:34;;;;;;;30.55;22.77;;;;;;;;;;5012704;28;20030;-70
2023/12/26 07:05:00;;;;;;;29.85;21.88;;;;;;;;;;5012844;28;20030;-70
2023/12/26 07:07:26;;;;;;;33.15;22.77;;;;;;;;;;5012286;28;20049;-70
2023/12/26 07:09:52;;;;;;;30.33;22.20;;;;;;;;;;5011517;28;20033;-70
2023/12/26 07:12:18;;;;;;;33.15;22.35;;;;;;;;;;5014151;28;20030;-70
2023/12/26 07:14:44;;;;;;;31.55;22.23;;;;;;;;;;5012616;28;20112;-70
2023/12/26 07:17:10;;;;;;;28.63;22.17;;;;;;;;;;5012968;28;20030;-70
2023/12/26 07:19:36;;;;;;;29.23;22.33;;;;;;;;;;5009466;28;20380;-70
2023/12/26 07:22:02;;;;;;;31.38;23.55;;;;;;;;;;5009302;28;20029;-70
2023/12/26 07:24:28;;;;;;;30.25;23.23;;;;;;;;;;5016324;28;20033;-70
2023/12/26 07:26:54;;;;;;;31.98;24.38;;;;;;;;;;5028720;28;20109;-70
2023/12/26 07:29:21;;;;;;;39.22;23.95;;;;;;;;;;5036631;28;20112;-70
2023/12/26 07:31:47;;;;;;;32.88;22.25;;;;;;;;;;5012417;28;20018;-70
2023/12/26 07:34:13;;;;;;;31.48;22.63;;;;;;;;;;5025919;28;20042;-70
2023/12/26 07:36:39;;;;;;;29.75;22.50;;;;;;;;;;5008749;28;20156;-69
2023/12/26 07:39:05;;;;;;;32.00;23.30;;;;;;;;;;5011497;28;20049;-70
2023/12/26 07:41:31;;;;;;;38.92;24.05;;;;;;;;;;5013013;28;20025;-70
2023/12/26 07:43:57;;;;;;;33.55;24.40;;;;;;;;;;5018230;28;20032;-69
2023/12/26 07:46:24;;;;;;;33.40;23.05;;;;;;;;;;5012296;28;20026;-70
2023/12/26 07:48:51;;;;;;;27.67;22.65;;;;;;;;;;5011972;28;20033;-70
2023/12/26 07:51:17;;;;;;;34.30;23.45;;;;;;;;;;5011868;28;20475;-70
2023/12/26 07:53:43;;;;;;;32.13;23.20;;;;;;;;;;5012123;28;20028;-70
2023/12/26 07:56:09;;;;;;;29.85;23.67;;;;;;;;;;5011469;28;20113;-69
2023/12/26 07:58:35;;;;;;;30.13;22.20;;;;;;;;;;5010097;28;20072;-70
2023/12/26 08:01:02;;;;;;;32.67;24.65;;;;;;;;;;4991049;28;20022;-70
2023/12/26 08:03:28;;;;;;;28.92;23.20;;;;;;;;;;4998254;28;20018;-70
2023/12/26 08:05:54;;;;;;;37.65;23.90;;;;;;;;;;5008906;28;20029;-70
2023/12/26 08:08:20;;;;;;;32.83;24.20;;;;;;;;;;5008432;28;20463;-70
2023/12/26 08:10:47;;;;;;;36.42;24.58;;;;;;;;;;5010306;28;20025;-69
2023/12/26 08:13:13;;;;;;;36.17;24.02;;;;;;;;;;5010446;28;20046;-70
2023/12/26 08:15:39;;;;;;;35.55;24.67;;;;;;;;;;5009536;28;20399;-70
2023/12/26 08:18:06;;;;;;;33.78;22.85;;;;;;;;;;5011772;28;20030;-70
2023/12/26 08:20:37;;;;;;;32.05;22.60;;;;;;;;;;5010212;28;20018;-69
2023/12/26 08:23:03;;;;;;;28.30;23.25;;;;;;;;;;5011664;28;20057;-70
2023/12/26 08:25:29;;;;;;;31.33;23.88;;;;;;;;;;5011852;28;20028;-70
2023/12/26 08:27:55;;;;;;;30.45;23.40;;;;;;;;;;5011683;28;20112;-70
2023/12/26 08:30:21;;;;;;;31.77;23.70;;;;;;;;;;4996704;28;20022;-70
2023/12/26 08:32:47;;;;;;;34.33;23.52;;;;;;;;;;5007935;28;20448;-70
2023/12/26 08:35:13;;;;;;;33.90;24.52;;;;;;;;;;5008251;28;20049;-70
2023/12/26 08:37:39;;;;;;;34.30;24.40;;;;;;;;;;5010435;28;20456;-70
2023/12/26 08:40:06;;;;;;;34.35;23.73;;;;;;;;;;5011392;28;20080;-71
2023/12/26 08:42:32;;;;;;;29.90;23.83;;;;;;;;;;5005485;28;20030;-69
2023/12/26 08:44:58;;;;;;;36.28;25.58;;;;;;;;;;5015682;28;20025;-69
2023/12/26 08:47:25;;;;;;;30.67;24.33;;;;;;;;;;5021898;28;20077;-68
2023/12/26 08:49:51;;;;;;;37.28;23.98;;;;;;;;;;5011027;28;20034;-68
2023/12/26 08:52:18;;;;;;;37.92;25.13;;;;;;;;;;5010140;28;20037;-68
2023/12/26 08:54:44;;;;;;;34.55;25.55;;;;;;;;;;5011402;28;20069;-68
2023/12/26 08:57:10;;;;;;;32.13;23.65;;;;;;;;;;5004814;28;20034;-68
2023/12/26 08:59:35;;;;;;;34.90;24.70;;;;;;;;;;5011198;28;20018;-68
2023/12/26 09:02:01;;;;;;;33.65;26.00;;;;;;;;;;5011487;28;20049;-68
2023/12/26 09:04:29;;;;;;;34.67;25.90;;;;;;;;;;5008243;28;20022;-68
2023/12/26 09:06:55;;;;;;;33.28;26.15;;;;;;;;;;5001585;28;20103;-68
2023/12/26 09:09:21;;;;;;;33.22;26.15;;;;;;;;;;5011070;28;20093;-68
2023/12/26 09:11:47;;;;;;;32.40;25.23;;;;;;;;;;5011306;28;20385;-68
2023/12/26 09:14:13;;;;;;;33.83;24.00;;;;;;;;;;5011205;28;20109;-70
2023/12/26 09:16:40;;;;;;;34.55;25.38;;;;;;;;;;5015930;28;20040;-69
2023/12/26 09:19:06;;;;;;;32.35;24.27;;;;;;;;;;5022411;28;20041;-73
2023/12/26 09:21:32;;;;;;;28.30;22.67;;;;;;;;;;5015267;28;20038;-60
2023/12/26 09:23:58;;;;;;;31.20;24.40;;;;;;;;;;5009669;28;20036;-60
2023/12/26 09:26:24;;;;;;;33.03;24.67;;;;;;;;;;5008358;28;20041;-60
2023/12/26 09:28:51;;;;;;;37.13;24.83;;;;;;;;;;5019508;28;20037;-60
2023/12/26 09:31:42;;;;;;;32.83;24.95;;;;;;;;;;5015712;28;20048;-60
2023/12/26 09:34:08;;;;;;;34.80;24.08;;;;;;;;;;5002746;28;20121;-60
2023/12/26 09:36:34;;;;;;;36.13;24.17;;;;;;;;;;5013753;28;20129;-60
2023/12/26 09:39:00;;;;;;;30.92;24.85;;;;;;;;;;5003371;28;20478;-60
2023/12/26 09:41:26;;;;;;;32.72;23.88;;;;;;;;;;5013324;28;20124;-61
2023/12/26 09:43:53;;;;;;;34.45;24.65;;;;;;;;;;5011929;28;20030;-63
2023/12/26 09:46:19;;;;;;;34.33;24.30;;;;;;;;;;5010389;28;20034;-61
2023/12/26 09:48:45;;;;;;;34.78;23.48;;;;;;;;;;5011734;28;20033;-61
2023/12/26 09:51:15;;;;;;;35.38;24.55;;;;;;;;;;5008801;28;20131;-61
2023/12/26 09:53:44;;;;;;;30.02;23.55;;;;;;;;;;5010427;28;20121;-61
2023/12/26 09:56:11;;;;;;;39.13;23.25;;;;;;;;;;5011682;28;20120;-61
2023/12/26 09:58:43;;;;;;;30.95;21.67;;;;;;;;;;5012243;28;20054;-60
2023/12/26 10:04:12;;;;;;;31.50;21.77;;;;;;;;;;4997644;28;20056;-61
2023/12/26 10:06:39;;;;;;;29.95;21.10;;;;;;;;;;5012044;28;20120;-61
2023/12/26 10:09:05;;;;;;;29.15;21.25;;;;;;;;;;5013298;28;20029;-61
2023/12/26 10:11:32;;;;;;;29.25;19.58;;;;;;;;;;5015436;28;20448;-61
2023/12/26 10:13:58;;;;;;;31.13;21.58;;;;;;;;;;5015712;28;20025;-61
2023/12/26 10:16:24;;;;;;;33.67;20.63;;;;;;;;;;5014927;28;20492;-61
2023/12/26 10:18:50;;;;;;;30.33;19.65;;;;;;;;;;5014456;28;20029;-61
2023/12/26 10:21:20;;;;;;;25.58;18.67;;;;;;;;;;5012448;28;20038;-60
2023/12/26 10:23:46;;;;;;;24.27;18.27;;;;;;;;;;5011572;28;20026;-60
2023/12/26 10:26:12;;;;;;;26.58;20.90;;;;;;;;;;5013460;28;20022;-61
2023/12/26 10:28:38;;;;;;;24.90;17.63;;;;;;;;;;5012403;28;20471;-60
2023/12/26 10:31:14;;;;;;;25.95;18.42;;;;;;;;;;5010479;28;20057;-60
2023/12/26 10:33:40;;;;;;;25.55;17.33;;;;;;;;;;5014565;28;20146;-61
2023/12/26 10:36:07;;;;;;;26.83;17.33;;;;;;;;;;5013673;28;20500;-61
2023/12/26 10:38:33;;;;;;;24.05;17.23;;;;;;;;;;5008825;28;20026;-61
2023/12/26 10:41:00;;;;;;;26.52;17.92;;;;;;;;;;5014669;28;20033;-61
2023/12/26 10:43:30;;;;;;;22.67;16.73;;;;;;;;;;5003834;28;20451;-61
2023/12/26 10:45:57;;;;;;;22.52;17.08;;;;;;;;;;5017215;28;20029;-61
2023/12/26 10:48:25;;;;;;;22.77;16.38;;;;;;;;;;5006243;28;20029;-61
2023/12/26 10:50:53;;;;;;;23.50;13.07;;;;;;;;;;5023843;28;20364;-61
2023/12/26 10:53:21;;;;;;;19.83;13.60;;;;;;;;;;5023904;28;20064;-60
2023/12/26 10:55:47;;;;;;;21.20;14.30;;;;;;;;;;5007749;28;20048;-60
2023/12/26 10:58:13;;;;;;;22.48;13.60;;;;;;;;;;5022698;28;20021;-68
2023/12/26 11:00:41;;;;;;;22.08;14.25;;;;;;;;;;5009209;28;20030;-66
2023/12/26 11:03:07;;;;;;;24.38;13.68;;;;;;;;;;5015428;28;20367;-66
2023/12/26 11:05:33;;;;;;;19.80;14.35;;;;;;;;;;5007627;28;20022;-66
2023/12/26 11:07:59;;;;;;;22.48;15.13;;;;;;;;;;5012461;28;20336;-66
2023/12/26 11:10:25;;;;;;;27.08;16.05;;;;;;;;;;5021018;28;20040;-66
2023/12/26 11:12:51;;;;;;;21.33;14.40;;;;;;;;;;5004453;28;20396;-65
2023/12/26 11:15:17;;;;;;;20.80;14.65;;;;;;;;;;5012706;28;20352;-66
2023/12/26 11:17:43;;;;;;;22.27;13.90;;;;;;;;;;5013886;28;20052;-66
2023/12/26 11:20:10;;;;;;;21.60;13.63;;;;;;;;;;5022479;28;20041;-65
2023/12/26 11:22:36;;;;;;;20.27;12.70;;;;;;;;;;5018601;28;20032;-65
2023/12/26 11:25:02;;;;;;;20.20;12.38;;;;;;;;;;5020560;28;20427;-65
2023/12/26 11:27:28;;;;;;;20.98;13.48;;;;;;;;;;5025118;28;20030;-65
2023/12/26 11:29:54;;;;;;;20.27;13.07;;;;;;;;;;5015328;28;20029;-65
2023/12/26 11:32:20;;;;;;;22.83;14.57;;;;;;;;;;5017416;28;20043;-66
2023/12/26 11:34:47;;;;;;;18.92;14.25;;;;;;;;;;5008880;28;20042;-66
2023/12/26 11:37:13;;;;;;;21.75;14.38;;;;;;;;;;5010875;28;20700;-65
2023/12/26 11:39:39;;;;;;;21.13;14.05;;;;;;;;;;5009840;28;20033;-66
2023/12/26 11:42:05;;;;;;;27.20;15.82;;;;;;;;;;5010641;28;20034;-65
2023/12/26 11:44:31;;;;;;;20.52;14.23;;;;;;;;;;5010274;28;20050;-69
2023/12/26 11:46:57;;;;;;;18.08;13.18;;;;;;;;;;5009984;28;20069;-71
2023/12/26 11:49:23;;;;;;;23.48;14.82;;;;;;;;;;5009491;28;20022;-68
2023/12/26 11:51:49;;;;;;;15.93;13.73;;;;;;;;;;5008756;28;20049;-67
2023/12/26 11:54:15;;;;;;;18.27;13.95;;;;;;;;;;5008698;28;20030;-67
2023/12/26 11:56:41;;;;;;;20.13;15.32;;;;;;;;;;5008679;28;20038;-66
2023/12/26 11:59:07;;;;;;;26.58;15.05;;;;;;;;;;5009607;28;20037;-67
2023/12/26 12:01:33;;;;;;;21.15;15.85;;;;;;;;;;5006712;28;20042;-66
2023/12/26 12:03:59;;;;;;;23.25;16.17;;;;;;;;;;5011061;28;20417;-66
2023/12/26 12:06:25;;;;;;;22.45;15.75;;;;;;;;;;5007391;28;20029;-66
2023/12/26 12:09:09;;;;;;;24.23;16.88;;;;;;;;;;5004532;28;20033;-68
2023/12/26 12:11:35;;;;;;;22.33;16.67;;;;;;;;;;5021585;28;20039;-67
2023/12/26 12:14:01;;;;;;;25.50;17.92;;;;;;;;;;5014271;28;20061;-67
2023/12/26 12:16:27;;;;;;;23.77;15.50;;;;;;;;;;5006082;28;20729;-67
2023/12/26 12:18:56;;;;;;;26.65;16.42;;;;;;;;;;5008845;28;20033;-67
2023/12/26 12:21:22;;;;;;;22.95;15.95;;;;;;;;;;5007431;28;20424;-67
2023/12/26 12:23:48;;;;;;;21.83;16.35;;;;;;;;;;5010363;28;20018;-67
2023/12/26 12:26:14;;;;;;;28.25;18.02;;;;;;;;;;5011614;28;20080;-67
2023/12/26 12:29:00;;;;;;;22.58;16.23;;;;;;;;;;5010908;28;20113;-67
2023/12/26 12:31:26;;;;;;;22.23;15.85;;;;;;;;;;5010766;28;20052;-67
2023/12/26 12:34:11;;;;;;;20.05;15.00;;;;;;;;;;5008361;28;20042;-67
2023/12/26 12:36:37;;;;;;;24.52;15.20;;;;;;;;;;5009329;28;20034;-67
2023/12/26 12:39:03;;;;;;;18.58;14.38;;;;;;;;;;5009682;28;20033;-67
2023/12/26 12:41:32;;;;;;;20.25;15.68;;;;;;;;;;5011409;28;20030;-68
2023/12/26 12:43:58;;;;;;;21.15;17.38;;;;;;;;;;5011459;28;20084;-67
2023/12/26 12:46:24;;;;;;;24.80;17.65;;;;;;;;;;5010076;28;20488;-67
2023/12/26 12:48:50;;;;;;;21.65;15.65;;;;;;;;;;5011713;28;20026;-67
2023/12/26 12:51:16;;;;;;;20.65;16.92;;;;;;;;;;5011323;28;20018;-67
2023/12/26 12:53:42;;;;;;;25.75;17.38;;;;;;;;;;5011512;28;20369;-67
2023/12/26 12:56:08;;;;;;;28.55;17.02;;;;;;;;;;5011382;28;20041;-68
2023/12/26 12:58:34;;;;;;;25.00;16.45;;;;;;;;;;5011259;28;20026;-67
2023/12/26 13:01:00;;;;;;;24.10;17.17;;;;;;;;;;5013314;28;20452;-67
2023/12/26 13:03:26;;;;;;;22.38;16.65;;;;;;;;;;5028529;28;20022;-68
2023/12/26 13:05:52;;;;;;;27.25;17.65;;;;;;;;;;5015201;28;20110;-68
2023/12/26 13:08:18;;;;;;;28.02;17.45;;;;;;;;;;5013730;28;20022;-68
2023/12/26 13:10:44;;;;;;;29.40;17.73;;;;;;;;;;5015014;28;20025;-67
2023/12/26 13:13:10;;;;;;;29.02;17.95;;;;;;;;;;5014971;28;20072;-68
2023/12/26 13:15:38;;;;;;;25.45;17.48;;;;;;;;;;5015021;28;20208;-67
2023/12/26 13:18:04;;;;;;;23.65;17.67;;;;;;;;;;5014839;28;20022;-67
2023/12/26 13:20:30;;;;;;;26.60;18.98;;;;;;;;;;5013554;28;20022;-68
2023/12/26 13:22:57;;;;;;;24.83;17.90;;;;;;;;;;5014952;28;20018;-68
2023/12/26 13:25:23;;;;;;;27.02;18.08;;;;;;;;;;5014764;28;20026;-68
2023/12/26 13:27:49;;;;;;;26.35;17.92;;;;;;;;;;5014789;28;20105;-68
2023/12/26 13:30:23;;;;;;;22.40;17.60;;;;;;;;;;5014713;28;20318;-67
2023/12/26 13:32:51;;;;;;;22.08;17.38;;;;;;;;;;5014936;28;20022;-68
2023/12/26 13:35:17;;;;;;;25.38;19.05;;;;;;;;;;5014198;28;20042;-68
2023/12/26 13:37:43;;;;;;;28.88;18.80;;;;;;;;;;5014576;28;20030;-68
2023/12/26 13:40:09;;;;;;;25.02;19.25;;;;;;;;;;5014464;28;20033;-68
2023/12/26 13:42:35;;;;;;;26.30;19.88;;;;;;;;;;5014440;28;20091;-68
2023/12/26 13:45:01;;;;;;;26.95;19.70;;;;;;;;;;5014331;28;20388;-68
2023/12/26 13:47:27;;;;;;;28.95;18.77;;;;;;;;;;5014605;28;20034;-68
2023/12/26 13:49:53;;;;;;;26.58;19.38;;;;;;;;;;5014514;28;20062;-68
2023/12/26 13:52:19;;;;;;;26.40;18.90;;;;;;;;;;5028014;28;20022;-68
2023/12/26 13:54:45;;;;;;;27.35;18.20;;;;;;;;;;5014177;28;20033;-68
2023/12/26 13:57:11;;;;;;;28.17;20.63;;;;;;;;;;5014235;28;20026;-68
2023/12/26 13:59:37;;;;;;;29.98;19.65;;;;;;;;;;5014197;28;20038;-68
2023/12/26 14:02:03;;;;;;;26.05;18.88;;;;;;;;;;5013952;28;20084;-68
2023/12/26 14:04:29;;;;;;;32.83;21.95;;;;;;;;;;5014299;28;20034;-69
2023/12/26 14:06:56;;;;;;;26.88;20.58;;;;;;;;;;5013862;28;20032;-68
2023/12/26 14:09:22;;;;;;;26.15;21.10;;;;;;;;;;5014114;28;20105;-68
2023/12/26 14:11:48;;;;;;;34.47;21.58;;;;;;;;;;5013537;28;20026;-68
2023/12/26 14:14:14;;;;;;;32.85;21.95;;;;;;;;;;5013340;28;20049;-68
2023/12/26 14:16:40;;;;;;;27.77;22.17;;;;;;;;;;5013912;28;20428;-68